createdAt,value
2018-06-29T00:00:55.171Z,2.45
2018-06-29T00:03:23.424Z,2.65
2018-06-29T00:05:51.636Z,2.60
2018-06-29T00:08:19.899Z,3.05
2018-06-29T00:10:48.166Z,2.62
2018-06-29T00:13:16.424Z,2.60
2018-06-29T00:15:44.697Z,2.70
2018-06-29T00:18:12.930Z,2.90
2018-06-29T00:20:41.252Z,2.52
2018-06-29T00:23:09.487Z,2.85
2018-06-29T00:25:38.551Z,2.80
2018-06-29T00:28:06.772Z,2.58
2018-06-29T00:30:34.987Z,2.60
2018-06-29T00:33:03.379Z,2.62
2018-06-29T00:35:31.563Z,2.87
2018-06-29T00:38:00.026Z,2.98
2018-06-29T00:40:28.298Z,3.20
2018-06-29T00:42:56.539Z,3.30
2018-06-29T00:45:24.747Z,2.92
2018-06-29T00:47:52.955Z,3.12
2018-06-29T00:50:21.175Z,2.80
2018-06-29T00:52:51.135Z,3.20
2018-06-29T00:55:19.108Z,3.42
2018-06-29T00:57:47.311Z,3.08
2018-06-29T01:00:15.994Z,2.90
2018-06-29T01:02:44.198Z,3.35
2018-06-29T01:05:12.486Z,3.12
2018-06-29T01:07:40.751Z,3.17
2018-06-29T01:10:08.993Z,3.10
2018-06-29T01:12:37.255Z,3.22
2018-06-29T01:15:05.887Z,3.30
2018-06-29T01:17:34.307Z,2.87
2018-06-29T01:20:02.650Z,3.65
2018-06-29T01:22:30.890Z,2.87
2018-06-29T01:24:59.135Z,2.85
2018-06-29T01:27:27.167Z,3.10
2018-06-29T01:29:55.434Z,3.33
2018-06-29T01:32:23.667Z,3.10
2018-06-29T01:34:51.909Z,3.67
2018-06-29T01:37:20.254Z,3.60
2018-06-29T01:39:48.746Z,3.02
2018-06-29T01:42:17.338Z,3.42
2018-06-29T01:44:45.629Z,3.60
2018-06-29T01:47:13.835Z,3.20
2018-06-29T01:49:42.082Z,3.50
2018-06-29T01:52:10.709Z,3.50
2018-06-29T01:54:38.919Z,3.08
2018-06-29T01:57:07.191Z,3.77
2018-06-29T01:59:36.060Z,3.50
2018-06-29T02:02:05.037Z,3.47
2018-06-29T02:04:33.299Z,3.27
2018-06-29T02:07:02.020Z,3.15
2018-06-29T02:09:30.294Z,3.00
2018-06-29T02:11:58.527Z,3.10
2018-06-29T02:14:26.770Z,3.10
2018-06-29T02:16:55.047Z,2.45
2018-06-29T02:19:23.306Z,2.75
2018-06-29T02:21:51.529Z,2.98
2018-06-29T02:24:19.844Z,2.45
2018-06-29T02:26:48.764Z,2.40
2018-06-29T02:29:17.671Z,2.17
2018-06-29T02:31:45.876Z,2.37
2018-06-29T02:34:14.162Z,2.10
2018-06-29T02:36:42.405Z,2.27
2018-06-29T02:39:12.443Z,2.10
2018-06-29T02:41:41.057Z,2.22
2018-06-29T02:44:09.334Z,2.02
2018-06-29T02:46:38.222Z,1.95
2018-06-29T02:49:06.536Z,2.15
2018-06-29T02:51:35.972Z,2.35
2018-06-29T02:54:04.556Z,1.70
2018-06-29T02:56:32.847Z,2.08
2018-06-29T02:59:01.064Z,2.00
2018-06-29T03:01:29.304Z,1.98
2018-06-29T03:03:57.519Z,2.40
2018-06-29T03:06:26.151Z,2.02
2018-06-29T03:08:54.352Z,1.80
2018-06-29T03:11:22.576Z,2.00
2018-06-29T03:13:50.817Z,2.22
2018-06-29T03:16:19.046Z,1.65
2018-06-29T03:18:47.476Z,2.15
2018-06-29T03:21:15.751Z,2.05
2018-06-29T03:23:44.001Z,2.10
2018-06-29T03:26:12.799Z,2.00
2018-06-29T03:28:41.003Z,2.00
2018-06-29T03:31:09.281Z,1.98
2018-06-29T03:33:37.515Z,2.12
2018-06-29T03:36:05.793Z,2.00
2018-06-29T03:38:34.404Z,1.87
2018-06-29T03:41:02.643Z,2.00
2018-06-29T03:43:30.918Z,1.92
2018-06-29T03:45:59.091Z,2.20
2018-06-29T03:48:27.328Z,2.17
2018-06-29T03:50:55.558Z,1.70
2018-06-29T03:53:23.793Z,1.80
2018-06-29T03:55:52.116Z,1.70
2018-06-29T03:58:20.401Z,2.00
2018-06-29T04:00:48.663Z,2.47
2018-06-29T04:03:17.150Z,1.95
2018-06-29T04:05:45.513Z,2.58
2018-06-29T04:08:13.717Z,1.70
2018-06-29T04:10:41.956Z,2.05
2018-06-29T04:13:10.188Z,2.60
2018-06-29T04:15:38.452Z,2.10
2018-06-29T04:18:08.459Z,1.82
2018-06-29T04:20:36.697Z,1.80
2018-06-29T04:23:05.003Z,1.80
2018-06-29T04:25:33.192Z,2.08
2018-06-29T04:28:02.335Z,2.12
2018-06-29T04:30:30.613Z,2.55
2018-06-29T04:32:58.932Z,2.20
2018-06-29T04:35:27.139Z,2.17
2018-06-29T04:37:55.418Z,2.52
2018-06-29T04:40:23.623Z,2.20
2018-06-29T04:42:51.903Z,2.25
2018-06-29T04:45:20.176Z,1.90
2018-06-29T04:47:48.491Z,2.47
2018-06-29T04:50:17.122Z,2.27
2018-06-29T04:52:45.343Z,2.33
2018-06-29T04:55:13.711Z,2.10
2018-06-29T04:57:41.952Z,2.20
2018-06-29T05:00:10.744Z,2.33
2018-06-29T05:02:39.204Z,2.05
2018-06-29T05:05:07.463Z,2.15
2018-06-29T05:07:35.701Z,2.22
2018-06-29T05:10:04.452Z,2.02
2018-06-29T05:12:32.644Z,2.05
2018-06-29T05:15:00.662Z,2.02
2018-06-29T05:17:28.935Z,2.70
2018-06-29T05:19:57.228Z,3.15
2018-06-29T05:22:25.448Z,2.70
2018-06-29T05:24:53.717Z,2.58
2018-06-29T05:27:21.962Z,2.20
2018-06-29T05:29:50.172Z,2.47
2018-06-29T05:32:18.454Z,2.55
2018-06-29T05:34:46.660Z,2.72
2018-06-29T05:37:15.359Z,2.70
2018-06-29T05:39:43.721Z,2.52
2018-06-29T05:42:11.949Z,2.47
2018-06-29T05:44:40.153Z,2.42
2018-06-29T05:47:08.419Z,2.75
2018-06-29T05:49:36.659Z,2.27
2018-06-29T05:52:05.608Z,2.65
2018-06-29T05:54:33.864Z,2.42
2018-06-29T05:57:02.120Z,2.20
2018-06-29T05:59:30.401Z,2.00
2018-06-29T06:01:59.059Z,2.40
2018-06-29T06:04:27.499Z,2.30
2018-06-29T06:06:55.984Z,2.40
2018-06-29T06:09:24.223Z,2.45
2018-06-29T06:11:52.203Z,2.20
2018-06-29T06:14:20.427Z,2.30
2018-06-29T06:16:48.659Z,2.45
2018-06-29T06:19:28.363Z,2.33
2018-06-29T06:21:56.643Z,2.05
2018-06-29T06:24:24.924Z,2.12
2018-06-29T06:26:53.210Z,2.25
2018-06-29T06:29:21.421Z,2.25
2018-06-29T06:31:49.987Z,2.17
2018-06-29T06:34:19.488Z,2.30
2018-06-29T06:36:47.707Z,2.37
2018-06-29T06:39:16.015Z,2.47
2018-06-29T06:41:44.374Z,2.40
2018-06-29T06:44:12.617Z,2.10
2018-06-29T06:46:40.836Z,2.20
2018-06-29T06:49:09.731Z,2.20
2018-06-29T06:51:37.976Z,2.30
2018-06-29T06:54:06.183Z,2.25
2018-06-29T06:56:34.430Z,2.30
2018-06-29T06:59:02.715Z,2.25
2018-06-29T07:01:30.992Z,2.20
2018-06-29T07:03:59.288Z,2.52
2018-06-29T07:06:27.495Z,1.82
2018-06-29T07:08:55.778Z,2.20
2018-06-29T07:11:24.167Z,1.98
2018-06-29T07:13:52.366Z,2.33
2018-06-29T07:16:20.617Z,2.17
2018-06-29T07:18:48.875Z,2.08
2018-06-29T07:21:18.193Z,1.75
2018-06-29T07:23:46.412Z,2.22
2018-06-29T07:26:15.319Z,2.05
2018-06-29T07:28:43.527Z,1.77
2018-06-29T07:31:12.040Z,2.37
2018-06-29T07:33:40.267Z,2.05
2018-06-29T07:36:08.500Z,2.12
2018-06-29T07:38:36.764Z,2.08
2018-06-29T07:41:05.015Z,2.20
2018-06-29T07:43:33.388Z,1.70
2018-06-29T07:46:01.857Z,1.80
2018-06-29T07:48:30.146Z,1.87
2018-06-29T07:50:58.422Z,1.80
2018-06-29T07:53:27.615Z,2.00
2018-06-29T07:55:56.236Z,1.75
2018-06-29T07:58:24.580Z,1.80
2018-06-29T08:00:56.972Z,2.12
2018-06-29T08:03:25.183Z,1.90
2018-06-29T08:05:53.387Z,1.90
2018-06-29T08:08:22.266Z,2.10
2018-06-29T08:10:50.499Z,1.77
2018-06-29T08:13:19.232Z,1.87
2018-06-29T08:15:47.449Z,1.90
2018-06-29T08:18:15.695Z,1.90
2018-06-29T08:20:44.754Z,2.27
2018-06-29T08:23:13.020Z,2.08
2018-06-29T08:25:41.267Z,2.00
2018-06-29T08:28:09.564Z,1.82
2018-06-29T08:30:37.904Z,1.72
2018-06-29T08:33:06.644Z,2.05
2018-06-29T08:35:34.868Z,1.87
2018-06-29T08:38:03.067Z,2.10
2018-06-29T08:40:31.635Z,2.22
2018-06-29T08:42:59.870Z,2.00
2018-06-29T08:45:29.067Z,2.02
2018-06-29T08:47:57.283Z,1.87
2018-06-29T08:50:25.828Z,1.98
2018-06-29T08:52:54.383Z,2.10
2018-06-29T08:55:22.653Z,1.87
2018-06-29T08:57:50.863Z,1.90
2018-06-29T09:00:19.114Z,1.98
2018-06-29T09:02:47.611Z,1.80
2018-06-29T09:05:15.848Z,2.20
2018-06-29T09:07:44.827Z,2.00
2018-06-29T09:10:13.055Z,2.50
2018-06-29T09:12:41.302Z,2.10
2018-06-29T09:15:09.536Z,2.02
2018-06-29T09:17:37.801Z,1.70
2018-06-29T09:20:06.044Z,2.22
2018-06-29T09:22:34.288Z,1.67
2018-06-29T09:25:02.548Z,2.20
2018-06-29T09:27:30.781Z,2.08
2018-06-29T09:29:58.992Z,1.75
2018-06-29T09:32:27.215Z,2.27
2018-06-29T09:34:55.463Z,1.82
2018-06-29T09:37:23.664Z,2.10
2018-06-29T09:39:52.423Z,2.22
2018-06-29T09:42:20.883Z,1.92
2018-06-29T09:44:49.109Z,2.02
2018-06-29T09:47:17.391Z,2.17
2018-06-29T09:49:45.603Z,2.02
2018-06-29T09:52:13.868Z,1.87
2018-06-29T09:54:42.108Z,2.27
2018-06-29T09:57:10.294Z,1.70
2018-06-29T09:59:38.531Z,1.92
2018-06-29T10:02:06.895Z,2.12
2018-06-29T10:04:35.149Z,1.92
2018-06-29T10:07:03.159Z,2.22
2018-06-29T10:09:31.371Z,2.15
2018-06-29T10:11:59.892Z,2.10
2018-06-29T10:14:28.211Z,1.65
2018-06-29T10:16:56.721Z,2.02
2018-06-29T10:19:25.005Z,1.95
2018-06-29T10:21:53.224Z,1.60
2018-06-29T10:24:21.755Z,2.20
2018-06-29T10:26:49.934Z,1.90
2018-06-29T10:29:18.120Z,2.40
2018-06-29T10:31:46.359Z,1.98
2018-06-29T10:34:15.512Z,2.40
2018-06-29T10:36:43.798Z,2.15
2018-06-29T10:39:14.713Z,2.20
2018-06-29T10:41:43.739Z,1.67
2018-06-29T10:44:12.403Z,2.10
2018-06-29T10:46:41.531Z,2.10
2018-06-29T10:49:09.736Z,1.90
2018-06-29T10:51:41.798Z,1.95
2018-06-29T10:54:10.038Z,2.37
2018-06-29T10:56:38.287Z,2.20
2018-06-29T10:59:06.479Z,2.00
2018-06-29T11:01:34.694Z,1.82
2018-06-29T11:04:02.963Z,2.20
2018-06-29T11:06:31.470Z,1.90
2018-06-29T11:08:59.721Z,2.10
2018-06-29T11:11:27.936Z,2.15
2018-06-29T11:13:56.215Z,2.55
2018-06-29T11:16:26.395Z,2.20
2018-06-29T11:18:54.631Z,2.15
2018-06-29T11:21:22.831Z,2.40
2018-06-29T11:23:51.039Z,2.05
2018-06-29T11:26:19.471Z,2.27
2018-06-29T11:28:47.707Z,2.40
2018-06-29T11:31:15.931Z,2.20
2018-06-29T11:33:44.195Z,2.35
2018-06-29T11:36:12.432Z,2.22
2018-06-29T11:38:40.780Z,2.40
2018-06-29T11:41:09.598Z,2.47
2018-06-29T11:43:37.863Z,2.42
2018-06-29T11:46:06.159Z,2.37
2018-06-29T11:48:34.458Z,2.05
2018-06-29T11:51:02.691Z,2.25
2018-06-29T11:53:31.127Z,2.30
2018-06-29T11:55:59.401Z,2.33
2018-06-29T11:58:42.492Z,2.50
2018-06-29T12:01:10.784Z,2.15
2018-06-29T12:03:39.025Z,1.98
2018-06-29T12:06:07.223Z,2.35
2018-06-29T12:08:35.498Z,2.33
2018-06-29T12:11:04.013Z,2.15
2018-06-29T12:13:32.269Z,2.50
2018-06-29T12:16:00.452Z,1.90
2018-06-29T12:18:28.691Z,2.50
2018-06-29T12:20:56.961Z,2.33
2018-06-29T12:23:25.188Z,2.45
2018-06-29T12:25:53.511Z,2.35
2018-06-29T12:28:22.028Z,2.55
2018-06-29T12:30:50.283Z,2.40
2018-06-29T12:33:18.781Z,2.22
2018-06-29T12:35:47.931Z,2.40
2018-06-29T12:38:16.190Z,2.12
2018-06-29T12:40:44.676Z,2.12
2018-06-29T12:43:13.606Z,2.20
2018-06-29T12:45:41.839Z,2.37
2018-06-29T12:48:10.059Z,2.37
2018-06-29T12:50:38.290Z,2.60
2018-06-29T12:53:06.942Z,2.65
2018-06-29T12:55:35.237Z,2.17
2018-06-29T12:58:03.910Z,2.00
2018-06-29T13:00:32.383Z,2.10
2018-06-29T13:03:00.981Z,1.90
2018-06-29T13:05:29.295Z,2.10
2018-06-29T13:07:57.495Z,2.12
2018-06-29T13:10:25.711Z,2.47
2018-06-29T13:12:54.506Z,2.33
2018-06-29T13:15:22.735Z,2.50
2018-06-29T13:17:51.008Z,2.10
2018-06-29T13:20:19.187Z,2.20
2018-06-29T13:22:47.452Z,2.30
2018-06-29T13:25:16.111Z,2.10
2018-06-29T13:27:44.307Z,1.80
2018-06-29T13:30:12.536Z,2.30
2018-06-29T13:32:40.755Z,1.80
2018-06-29T13:35:09.030Z,2.12
2018-06-29T13:37:37.248Z,1.80
2018-06-29T13:40:05.768Z,1.70
2018-06-29T13:42:34.227Z,1.50
2018-06-29T13:45:02.864Z,2.05
2018-06-29T13:47:31.107Z,1.82
2018-06-29T13:49:59.426Z,1.98
2018-06-29T13:52:27.680Z,1.80
2018-06-29T13:54:56.004Z,1.70
2018-06-29T13:57:24.269Z,2.00
2018-06-29T13:59:53.164Z,1.85
2018-06-29T14:02:21.954Z,2.40
2018-06-29T14:04:50.127Z,2.37
2018-06-29T14:07:18.391Z,2.10
2018-06-29T14:09:46.659Z,1.80
2018-06-29T14:12:14.907Z,1.77
2018-06-29T14:14:43.180Z,1.90
2018-06-29T14:17:11.429Z,2.05
2018-06-29T14:19:39.674Z,2.00
2018-06-29T14:22:07.928Z,1.77
2018-06-29T14:24:36.183Z,2.30
2018-06-29T14:27:04.500Z,2.20
2018-06-29T14:29:34.177Z,2.35
2018-06-29T14:32:02.874Z,1.70
2018-06-29T14:34:31.180Z,1.98
2018-06-29T14:36:59.399Z,2.10
2018-06-29T14:39:27.634Z,2.00
2018-06-29T14:41:55.855Z,1.82
2018-06-29T14:44:24.158Z,1.90
2018-06-29T14:46:53.191Z,1.98
2018-06-29T14:49:21.460Z,2.62
2018-06-29T14:51:49.706Z,1.57
2018-06-29T14:54:17.985Z,1.75
2018-06-29T14:56:46.211Z,2.00
2018-06-29T14:59:14.747Z,1.77
2018-06-29T15:01:43.013Z,2.27
2018-06-29T15:04:11.271Z,1.87
2018-06-29T15:06:39.459Z,1.65
2018-06-29T15:09:08.915Z,2.15
2018-06-29T15:11:37.126Z,1.95
2018-06-29T15:14:05.392Z,1.77
2018-06-29T15:16:34.055Z,2.10
2018-06-29T15:19:02.655Z,2.02
2018-06-29T15:21:30.938Z,1.47
2018-06-29T15:23:59.807Z,1.90
2018-06-29T15:26:28.077Z,1.80
2018-06-29T15:28:56.675Z,1.60
2018-06-29T15:31:24.940Z,1.80
2018-06-29T15:33:53.186Z,1.77
2018-06-29T15:36:21.418Z,1.82
2018-06-29T15:38:50.106Z,1.75
2018-06-29T15:41:18.325Z,1.45
2018-06-29T15:43:46.556Z,1.82
2018-06-29T15:46:14.808Z,1.95
2018-06-29T15:48:43.041Z,1.65
2018-06-29T15:51:11.307Z,1.77
2018-06-29T15:53:39.547Z,1.52
2018-06-29T15:56:08.701Z,1.50
2018-06-29T15:58:36.674Z,1.72
2018-06-29T16:01:04.895Z,1.47
2018-06-29T16:03:33.123Z,1.80
2018-06-29T16:06:01.358Z,1.60
2018-06-29T16:08:29.556Z,1.50
2018-06-29T16:10:57.811Z,1.57
2018-06-29T16:13:26.032Z,1.80
2018-06-29T16:15:54.384Z,1.80
2018-06-29T16:18:22.894Z,1.55
2018-06-29T16:20:51.141Z,1.57
2018-06-29T16:23:19.355Z,1.67
2018-06-29T16:25:48.206Z,1.70
2018-06-29T16:28:16.496Z,1.70
2018-06-29T16:30:44.776Z,1.65
2018-06-29T16:33:13.031Z,1.80
2018-06-29T16:35:41.231Z,1.62
2018-06-29T16:38:11.578Z,1.20
2018-06-29T16:40:39.839Z,1.60
2018-06-29T16:43:08.311Z,1.40
2018-06-29T16:45:36.608Z,1.35
2018-06-29T16:48:05.424Z,1.80
2018-06-29T16:50:37.641Z,1.50
2018-06-29T16:53:06.243Z,1.30
2018-06-29T16:55:34.730Z,1.27
2018-06-29T16:58:02.975Z,1.22
2018-06-29T17:00:31.472Z,1.45
2018-06-29T17:02:59.760Z,1.10
2018-06-29T17:05:28.090Z,1.57
2018-06-29T17:07:56.991Z,1.35
2018-06-29T17:10:26.116Z,1.50
2018-06-29T17:12:54.359Z,1.50
2018-06-29T17:15:23.476Z,1.35
2018-06-29T17:17:51.776Z,1.40
2018-06-29T17:20:19.987Z,1.27
2018-06-29T17:22:48.245Z,1.32
2018-06-29T17:25:18.942Z,1.27
2018-06-29T17:27:48.913Z,1.30
2018-06-29T17:30:17.411Z,1.50
2018-06-29T17:32:48.547Z,1.37
2018-06-29T17:35:16.880Z,1.17
2018-06-29T17:37:45.211Z,1.20
2018-06-29T17:40:13.438Z,1.47
2018-06-29T17:42:44.405Z,1.65
2018-06-29T17:45:12.764Z,1.17
2018-06-29T17:47:40.992Z,1.50
2018-06-29T17:50:09.300Z,1.22
2018-06-29T17:52:37.763Z,1.22
2018-06-29T17:55:06.165Z,1.40
2018-06-29T17:57:34.674Z,1.22
2018-06-29T18:00:03.004Z,1.70
2018-06-29T18:02:31.275Z,1.37
2018-06-29T18:04:59.550Z,1.40
2018-06-29T18:07:27.808Z,1.72
2018-06-29T18:09:56.027Z,1.70
2018-06-29T18:12:24.336Z,1.45
2018-06-29T18:14:52.980Z,1.30
2018-06-29T18:17:21.219Z,1.65
2018-06-29T18:19:49.451Z,1.22
2018-06-29T18:22:17.718Z,1.30
2018-06-29T18:24:45.911Z,1.22
2018-06-29T18:27:14.625Z,1.30
2018-06-29T18:29:42.957Z,1.47
2018-06-29T18:32:11.556Z,1.72
2018-06-29T18:34:39.763Z,1.10
2018-06-29T18:37:08.033Z,1.35
2018-06-29T18:39:36.473Z,1.40
2018-06-29T18:42:04.996Z,1.50
2018-06-29T18:44:33.163Z,1.30
2018-06-29T18:47:02.105Z,1.30
2018-06-29T18:49:30.339Z,1.30
2018-06-29T18:51:58.841Z,1.40
2018-06-29T18:54:27.103Z,1.47
2018-06-29T18:56:55.331Z,1.57
2018-06-29T18:59:23.918Z,1.40
2018-06-29T19:01:52.539Z,1.40
2018-06-29T19:04:20.797Z,1.40
2018-06-29T19:06:49.035Z,1.50
2018-06-29T19:09:17.328Z,1.75
2018-06-29T19:11:45.531Z,1.92
2018-06-29T19:14:13.724Z,1.40
2018-06-29T19:16:41.935Z,1.10
2018-06-29T19:19:11.099Z,1.55
2018-06-29T19:21:39.352Z,1.20
2018-06-29T19:24:07.596Z,1.85
2018-06-29T19:26:35.871Z,1.42
2018-06-29T19:29:04.131Z,1.60
2018-06-29T19:31:32.765Z,1.55
2018-06-29T19:34:00.977Z,1.40
2018-06-29T19:36:29.231Z,1.98
2018-06-29T19:38:57.464Z,1.90
2018-06-29T19:41:25.696Z,2.05
2018-06-29T19:43:53.991Z,1.52
2018-06-29T19:46:23.047Z,1.50
2018-06-29T19:48:51.292Z,1.70
2018-06-29T19:51:19.508Z,1.98
2018-06-29T19:53:47.767Z,1.75
2018-06-29T19:56:15.990Z,2.05
2018-06-29T19:58:44.245Z,1.80
2018-06-29T20:01:13.304Z,2.30
2018-06-29T20:03:41.516Z,1.98
2018-06-29T20:06:10.003Z,2.20
2018-06-29T20:08:38.295Z,2.00
2018-06-29T20:11:06.519Z,2.12
2018-06-29T20:13:34.755Z,2.10
2018-06-29T20:16:03.005Z,1.85
2018-06-29T20:18:31.479Z,2.05
2018-06-29T20:20:59.716Z,2.35
2018-06-29T20:23:28.773Z,2.17
2018-06-29T20:25:57.207Z,2.15
2018-06-29T20:28:25.659Z,1.77
2018-06-29T20:30:54.034Z,1.85
2018-06-29T20:33:22.298Z,2.17
2018-06-29T20:35:50.763Z,2.75
2018-06-29T20:38:19.129Z,2.70
2018-06-29T20:40:47.616Z,1.80
2018-06-29T20:43:16.014Z,2.02
2018-06-29T20:45:45.029Z,2.08
2018-06-29T20:48:13.307Z,2.25
2018-06-29T20:50:41.820Z,2.20
2018-06-29T20:53:10.089Z,2.40
2018-06-29T20:55:38.390Z,2.65
2018-06-29T20:58:06.703Z,2.33
2018-06-29T21:00:34.993Z,2.08
2018-06-29T21:03:03.491Z,1.90
2018-06-29T21:05:31.671Z,2.27
2018-06-29T21:07:59.950Z,2.40
2018-06-29T21:10:28.244Z,2.15
2018-06-29T21:12:56.489Z,1.85
2018-06-29T21:15:24.862Z,2.05
2018-06-29T21:17:53.155Z,2.40
2018-06-29T21:20:21.452Z,2.42
2018-06-29T21:22:50.405Z,2.05
2018-06-29T21:25:18.826Z,2.15
2018-06-29T21:27:46.971Z,2.52
2018-06-29T21:30:15.520Z,2.30
2018-06-29T21:32:44.079Z,2.00
2018-06-29T21:35:13.027Z,2.50
2018-06-29T21:37:42.114Z,2.08
2018-06-29T21:40:10.505Z,2.27
2018-06-29T21:42:39.078Z,2.47
2018-06-29T21:45:07.519Z,2.42
2018-06-29T21:47:35.754Z,2.20
2018-06-29T21:50:05.459Z,2.15
2018-06-29T21:52:33.899Z,2.20
2018-06-29T21:55:02.921Z,2.17
2018-06-29T21:57:31.532Z,2.12
2018-06-29T21:59:59.759Z,2.10
2018-06-29T22:02:28.065Z,1.90
2018-06-29T22:04:56.395Z,2.02
2018-06-29T22:07:24.888Z,2.10
2018-06-29T22:09:53.479Z,1.92
2018-06-29T22:12:21.724Z,2.00
2018-06-29T22:14:49.998Z,2.22
2018-06-29T22:17:18.298Z,2.10
2018-06-29T22:19:47.667Z,1.75
2018-06-29T22:22:15.932Z,1.92
2018-06-29T22:24:44.170Z,1.90
2018-06-29T22:27:12.427Z,1.92
2018-06-29T22:29:40.735Z,2.12
2018-06-29T22:32:08.971Z,1.92
2018-06-29T22:34:37.176Z,1.87
2018-06-29T22:37:05.379Z,2.10
2018-06-29T22:39:33.689Z,2.05
2018-06-29T22:42:01.952Z,1.60
2018-06-29T22:44:30.271Z,1.80
2018-06-29T22:46:58.692Z,1.65
2018-06-29T22:49:27.180Z,1.70
2018-06-29T22:51:55.370Z,1.70
2018-06-29T22:54:23.600Z,1.95
2018-06-29T22:56:51.816Z,1.57
2018-06-29T22:59:21.947Z,1.45
2018-06-29T23:01:50.794Z,1.60
2018-06-29T23:04:19.411Z,1.70
2018-06-29T23:06:48.175Z,1.70
2018-06-29T23:09:16.739Z,1.85
2018-06-29T23:11:45.231Z,1.60
2018-06-29T23:14:13.489Z,1.92
2018-06-29T23:16:41.700Z,1.65
2018-06-29T23:19:10.359Z,1.95
2018-06-29T23:21:38.615Z,1.67
2018-06-29T23:24:07.164Z,1.60
2018-06-29T23:26:35.152Z,1.50
2018-06-29T23:29:03.343Z,1.40
2018-06-29T23:31:31.576Z,1.67
2018-06-29T23:33:59.806Z,1.37
2018-06-29T23:36:28.035Z,1.90
2018-06-29T23:38:56.239Z,1.30
2018-06-29T23:41:24.518Z,1.62
2018-06-29T23:43:52.795Z,1.47
2018-06-29T23:46:21.071Z,1.65
2018-06-29T23:48:49.288Z,1.40
2018-06-29T23:51:17.830Z,1.65
2018-06-29T23:53:46.031Z,1.40
2018-06-29T23:56:14.322Z,1.50
2018-06-29T23:58:42.700Z,1.50
